Time;durP1;ratioP1;P1;durP2;ratioP2;P2;SDS_P1;SDS_P2;PMS_P1;PMS_P2;Temp;Humidity;BMP_temperature;BMP_pressure;BME280_temperature;BME280_humidity;BME280_pressure;Samples;Min_cycle;Max_cycle;Signal;HPM_P1;HPM_P2
2023/07/08 00:01:13;;;;;;;5.05;1.80;;;14.90;99.90;;;;;;6215765;23;20351;-83
2023/07/08 00:03:39;;;;;;;3.20;1.45;;;14.90;99.90;;;;;;6215346;23;20083;-83
2023/07/08 00:06:12;;;;;;;2.38;1.40;;;14.90;99.90;;;;;;6188907;23;20017;-82
2023/07/08 00:08:38;;;;;;;3.47;1.63;;;14.80;99.90;;;;;;6217001;23;20027;-82
2023/07/08 00:11:10;;;;;;;3.10;1.73;;;14.80;99.90;;;;;;6143506;23;20067;-83
2023/07/08 00:13:35;;;;;;;2.83;1.70;;;14.70;99.90;;;;;;6221347;23;20027;-83
2023/07/08 00:16:01;;;;;;;2.65;1.70;;;14.60;99.90;;;;;;6219993;23;20412;-81
2023/07/08 00:18:27;;;;;;;2.65;1.75;;;14.60;99.90;;;;;;6218513;23;20383;-85
2023/07/08 00:20:52;;;;;;;5.82;2.00;;;14.60;99.90;;;;;;6189330;23;20016;-85
2023/07/08 00:23:21;;;;;;;3.17;1.48;;;14.60;99.90;;;;;;6215394;23;20159;-86
2023/07/08 00:25:48;;;;;;;3.58;1.35;;;14.60;99.90;;;;;;6188630;23;20028;-86
2023/07/08 00:28:21;;;;;;;3.00;1.80;;;14.60;99.90;;;;;;6216718;23;20020;-82
2023/07/08 00:30:47;;;;;;;2.95;1.75;;;14.60;99.90;;;;;;6217502;23;20063;-84
2023/07/08 00:33:13;;;;;;;3.90;2.25;;;14.60;99.90;;;;;;6217485;23;20027;-85
2023/07/08 00:35:44;;;;;;;2.90;1.58;;;14.50;99.90;;;;;;6217653;23;20020;-84
2023/07/08 00:38:19;;;;;;;3.55;1.67;;;14.60;99.90;;;;;;6190126;23;20021;-87
2023/07/08 00:41:11;;;;;;;2.97;1.70;;;14.50;99.90;;;;;;6217374;23;20023;-82
2023/07/08 00:43:46;;;;;;;3.95;1.98;;;14.50;99.90;;;;;;6096260;23;20030;-83
2023/07/08 00:46:27;;;;;;;3.72;2.22;;;14.50;99.90;;;;;;6096349;23;20033;-81
2023/07/08 00:48:58;;;;;;;2.70;1.33;;;14.50;99.90;;;;;;6096072;23;20019;-83
2023/07/08 00:51:24;;;;;;;2.08;1.30;;;14.60;99.90;;;;;;6096554;23;20027;-85
2023/07/08 00:53:50;;;;;;;3.70;1.20;;;14.60;99.90;;;;;;6096063;23;20092;-83
2023/07/08 00:56:17;;;;;;;2.38;1.35;;;14.60;99.90;;;;;;6095976;23;20039;-85
2023/07/08 00:58:48;;;;;;;2.30;1.65;;;14.50;99.90;;;;;;6071931;23;20102;-85
2023/07/08 01:01:15;;;;;;;3.47;1.65;;;14.60;99.90;;;;;;6072402;23;20033;-86
2023/07/08 01:03:49;;;;;;;3.30;1.70;;;14.60;99.90;;;;;;6072248;23;20105;-82
2023/07/08 01:06:16;;;;;;;1.80;1.50;;;14.60;99.90;;;;;;6095972;23;20035;-83
2023/07/08 01:08:42;;;;;;;4.38;2.20;;;14.60;99.90;;;;;;6071715;23;20393;-84
2023/07/08 01:11:08;;;;;;;5.63;2.38;;;14.60;99.90;;;;;;6096188;23;20026;-82
2023/07/08 01:13:40;;;;;;;2.40;1.60;;;14.70;99.90;;;;;;6096002;23;20029;-86
2023/07/08 01:16:07;;;;;;;3.22;2.10;;;14.60;99.90;;;;;;6111715;23;20057;-85
2023/07/08 01:18:35;;;;;;;6.10;2.30;;;14.60;99.90;;;;;;6125387;23;20077;-84
2023/07/08 01:21:04;;;;;;;3.20;2.08;;;14.60;99.90;;;;;;6168864;23;20027;-82
2023/07/08 01:23:30;;;;;;;2.85;1.52;;;14.70;99.90;;;;;;6187720;23;20040;-82
2023/07/08 01:25:56;;;;;;;2.83;1.67;;;14.60;99.90;;;;;;6187013;23;20025;-82
2023/07/08 01:28:22;;;;;;;3.22;1.30;;;14.70;99.90;;;;;;6187756;23;20021;-85
2023/07/08 01:30:48;;;;;;;3.33;1.83;;;14.70;99.90;;;;;;6188022;23;20329;-83
2023/07/08 01:33:21;;;;;;;2.40;1.77;;;14.70;99.90;;;;;;6188811;23;20017;-83
2023/07/08 01:35:49;;;;;;;5.53;2.78;;;14.70;99.90;;;;;;6188967;23;20063;-83
2023/07/08 01:42:08;;;;;;;3.00;2.03;;;14.70;99.90;;;;;;6187224;23;20059;-86
2023/07/08 01:44:36;;;;;;;3.38;1.98;;;14.80;99.90;;;;;;6160675;23;20359;-82
2023/07/08 01:47:18;;;;;;;2.75;1.90;;;14.90;99.90;;;;;;6187203;23;20376;-83
2023/07/08 01:49:46;;;;;;;3.83;1.98;;;14.80;99.90;;;;;;6187435;23;20321;-83
2023/07/08 01:52:14;;;;;;;4.25;1.70;;;14.90;99.90;;;;;;6187406;23;20028;-85
2023/07/08 01:54:40;;;;;;;5.20;1.98;;;14.80;99.90;;;;;;6135930;23;20023;-83
2023/07/08 01:57:05;;;;;;;3.00;1.77;;;14.80;99.90;;;;;;6161012;23;20358;-82
2023/07/08 01:59:31;;;;;;;3.78;2.08;;;14.90;99.90;;;;;;6160523;23;20017;-82
2023/07/08 02:01:57;;;;;;;3.08;1.40;;;14.80;99.90;;;;;;6161227;23;20121;-84
2023/07/08 02:04:25;;;;;;;3.72;1.95;;;14.80;99.90;;;;;;6160807;23;20028;-82
2023/07/08 02:06:53;;;;;;;3.08;1.70;;;14.90;99.90;;;;;;6186596;23;20049;-81
2023/07/08 02:09:19;;;;;;;2.65;1.50;;;14.80;99.90;;;;;;6160355;23;20025;-83
2023/07/08 02:11:44;;;;;;;2.78;2.10;;;14.80;99.90;;;;;;6186070;23;20024;-83
2023/07/08 02:14:10;;;;;;;5.30;1.98;;;14.80;99.90;;;;;;6160168;23;20087;-81
2023/07/08 02:16:35;;;;;;;3.35;1.67;;;14.80;99.90;;;;;;6208614;23;20043;-84
2023/07/08 02:19:01;;;;;;;4.03;2.17;;;14.90;99.90;;;;;;6215835;23;20066;-83
2023/07/08 02:21:30;;;;;;;3.17;1.90;;;14.80;99.90;;;;;;6215748;23;20092;-81
2023/07/08 02:23:57;;;;;;;5.22;2.42;;;14.80;99.90;;;;;;6216292;23;20020;-81
2023/07/08 02:26:23;;;;;;;4.93;2.13;;;14.80;99.90;;;;;;6189775;23;20016;-81
2023/07/08 02:28:49;;;;;;;3.42;1.73;;;14.80;99.90;;;;;;6216514;23;20335;-81
2023/07/08 02:31:15;;;;;;;2.45;1.73;;;14.80;99.90;;;;;;6215882;23;20027;-81
2023/07/08 02:33:40;;;;;;;4.80;1.73;;;14.70;99.90;;;;;;6216178;23;20020;-82
2023/07/08 02:36:06;;;;;;;3.45;1.50;;;14.80;99.90;;;;;;6189362;23;20028;-81
2023/07/08 02:38:32;;;;;;;2.92;1.83;;;14.80;99.90;;;;;;6216480;23;20032;-84
2023/07/08 02:40:59;;;;;;;4.30;1.90;;;14.80;99.90;;;;;;6189633;23;20012;-81
2023/07/08 02:43:24;;;;;;;3.58;2.00;;;14.80;99.90;;;;;;6216089;23;20027;-82
2023/07/08 02:45:51;;;;;;;3.60;2.00;;;14.80;99.90;;;;;;6216301;23;20012;-82
2023/07/08 02:48:20;;;;;;;5.32;3.55;;;14.80;99.90;;;;;;6190299;23;20115;-82
2023/07/08 02:50:46;;;;;;;1107.57;617.17;;;14.80;99.90;;;;;;6190840;23;20044;-83
2023/07/08 02:53:12;;;;;;;7.88;2.75;;;14.80;99.90;;;;;;6218091;23;20017;-81
2023/07/08 02:55:38;;;;;;;2.33;1.35;;;14.80;99.90;;;;;;6218447;23;20060;-82
2023/07/08 02:58:04;;;;;;;5.40;1.98;;;14.80;99.90;;;;;;6217409;23;20118;-84
2023/07/08 03:00:30;;;;;;;4.68;1.65;;;14.70;99.90;;;;;;6216468;23;20028;-84
2023/07/08 03:02:55;;;;;;;4.70;2.15;;;14.70;99.90;;;;;;6216178;23;20028;-82
2023/07/08 03:05:21;;;;;;;2.85;2.28;;;14.70;99.90;;;;;;6216098;23;20024;-81
2023/07/08 03:07:47;;;;;;;4.22;1.58;;;14.70;99.90;;;;;;6190591;23;20293;-83
2023/07/08 03:10:12;;;;;;;3.65;2.25;;;14.70;99.90;;;;;;6216185;23;20017;-81
2023/07/08 03:12:38;;;;;;;4.50;2.05;;;14.70;99.90;;;;;;6216017;23;20020;-82
2023/07/08 03:15:05;;;;;;;4.85;2.47;;;14.70;99.90;;;;;;6215595;23;20354;-82
2023/07/08 03:17:30;;;;;;;3.10;2.05;;;14.50;99.90;;;;;;6216067;23;20085;-81
2023/07/08 03:19:56;;;;;;;3.10;2.10;;;14.70;99.90;;;;;;6216132;23;20410;-82
2023/07/08 03:22:22;;;;;;;5.32;2.70;;;14.70;99.90;;;;;;6216611;23;20028;-83
2023/07/08 03:24:47;;;;;;;4.18;2.22;;;14.70;99.90;;;;;;6215929;23;20096;-88
2023/07/08 03:27:14;;;;;;;2.83;2.00;;;14.80;99.90;;;;;;6216438;23;20032;-81
2023/07/08 03:29:40;;;;;;;2.78;2.03;;;14.80;99.90;;;;;;6215396;23;20093;-82
2023/07/08 03:32:09;;;;;;;4.45;2.20;;;14.80;99.90;;;;;;6216313;23;20021;-83
2023/07/08 03:34:35;;;;;;;2.63;1.80;;;14.80;99.90;;;;;;6189315;23;20024;-84
2023/07/08 03:37:01;;;;;;;3.67;1.70;;;14.80;99.90;;;;;;6215683;23;20067;-83
2023/07/08 03:39:26;;;;;;;4.68;2.30;;;14.80;99.90;;;;;;6215889;23;20436;-82
2023/07/08 03:41:52;;;;;;;5.43;2.17;;;14.70;99.90;;;;;;6215945;23;20025;-86
2023/07/08 03:44:18;;;;;;;4.03;2.60;;;14.70;99.90;;;;;;6215597;23;20035;-81
2023/07/08 03:46:45;;;;;;;3.90;2.03;;;14.70;99.90;;;;;;6214811;23;20056;-82
2023/07/08 03:49:12;;;;;;;2.67;2.00;;;14.70;99.90;;;;;;6189032;23;20383;-84
2023/07/08 03:51:40;;;;;;;3.47;2.28;;;14.70;99.90;;;;;;6215893;23;20075;-85
2023/07/08 03:54:08;;;;;;;4.45;2.53;;;14.80;99.90;;;;;;6164068;23;20055;-83
2023/07/08 03:56:34;;;;;;;3.22;2.00;;;14.80;99.90;;;;;;6188824;23;20399;-81
2023/07/08 03:59:00;;;;;;;2.33;1.90;;;14.70;99.90;;;;;;6215994;23;20024;-81
2023/07/08 04:01:26;;;;;;;3.70;2.35;;;14.80;99.90;;;;;;6216359;23;20021;-83
2023/07/08 04:03:53;;;;;;;5.50;2.58;;;14.80;99.90;;;;;;6218456;23;20358;-87
2023/07/08 04:06:20;;;;;;;5.72;2.67;;;14.90;99.90;;;;;;6218164;23;20056;-84
2023/07/08 04:08:46;;;;;;;5.35;2.45;;;14.90;99.90;;;;;;6217259;23;20538;-84
2023/07/08 04:11:19;;;;;;;3.55;2.08;;;14.90;99.90;;;;;;6218512;23;20052;-84
2023/07/08 04:13:45;;;;;;;2.40;1.90;;;14.90;99.90;;;;;;6217897;23;20021;-83
2023/07/08 04:16:29;;;;;;;5.32;2.90;;;15.00;99.90;;;;;;6217332;23;20516;-83
2023/07/08 04:18:55;;;;;;;3.30;2.20;;;15.10;99.90;;;;;;6217932;23;20139;-85
2023/07/08 04:21:23;;;;;;;5.97;2.17;;;15.20;99.90;;;;;;6218039;23;20025;-83
2023/07/08 04:23:48;;;;;;;3.92;2.40;;;15.30;99.90;;;;;;6217982;23;20016;-82
2023/07/08 04:26:14;;;;;;;6.90;2.58;;;15.40;99.90;;;;;;6191155;23;20067;-85
2023/07/08 04:28:41;;;;;;;5.53;2.70;;;15.40;99.90;;;;;;6217885;23;20052;-83
2023/07/08 04:31:08;;;;;;;4.63;2.45;;;15.30;99.90;;;;;;6217827;23;20074;-82
2023/07/08 04:33:34;;;;;;;4.78;3.15;;;15.60;99.90;;;;;;6217319;23;20021;-84
2023/07/08 04:36:00;;;;;;;4.60;2.78;;;15.70;99.90;;;;;;6216982;23;20108;-83
2023/07/08 04:38:26;;;;;;;4.88;2.78;;;15.70;99.90;;;;;;6216766;23;20049;-84
2023/07/08 04:40:53;;;;;;;4.43;2.53;;;15.80;99.90;;;;;;6216232;23;20027;-85
2023/07/08 04:43:20;;;;;;;5.05;3.28;;;15.90;99.90;;;;;;6217242;23;20023;-84
2023/07/08 04:45:51;;;;;;;5.43;3.35;;;16.10;99.90;;;;;;6189828;23;20104;-81
2023/07/08 04:48:21;;;;;;;4.93;2.70;;;16.20;99.90;;;;;;6216943;23;20021;-83
2023/07/08 04:50:49;;;;;;;3.88;2.42;;;16.30;99.90;;;;;;6189791;23;20025;-84
2023/07/08 04:53:16;;;;;;;4.43;3.08;;;16.40;99.90;;;;;;6189976;23;20028;-84
2023/07/08 04:55:55;;;;;;;5.03;2.95;;;16.50;99.90;;;;;;6216661;23;20028;-81
2023/07/08 04:58:20;;;;;;;6.50;3.35;;;16.60;99.90;;;;;;6216471;23;20024;-81
2023/07/08 05:00:46;;;;;;;6.65;3.30;;;16.70;99.90;;;;;;6216688;23;20091;-82
2023/07/08 05:03:12;;;;;;;5.80;3.45;;;16.80;99.90;;;;;;6216760;23;20444;-83
2023/07/08 05:05:38;;;;;;;5.90;3.33;;;16.90;99.90;;;;;;6189584;23;20123;-84
2023/07/08 05:08:04;;;;;;;37.35;34.55;;;17.00;99.90;;;;;;6216536;23;20021;-83
2023/07/08 05:10:29;;;;;;;55.80;39.58;;;17.10;99.90;;;;;;6216406;23;20020;-85
2023/07/08 05:12:55;;;;;;;624.83;448.50;;;17.10;99.90;;;;;;6189326;23;20020;-83
2023/07/08 05:15:21;;;;;;;3.90;2.90;;;17.20;99.90;;;;;;6189057;23;20025;-84
2023/07/08 05:17:47;;;;;;;6.43;3.10;;;17.30;99.90;;;;;;6216503;23;20095;-83
2023/07/08 05:20:14;;;;;;;109.32;102.40;;;17.30;99.90;;;;;;6189877;23;20364;-85
2023/07/08 05:22:42;;;;;;;5.82;2.88;;;17.40;99.90;;;;;;6216336;23;20017;-84
2023/07/08 05:25:08;;;;;;;3.65;2.35;;;17.50;99.90;;;;;;6216232;23;20032;-84
2023/07/08 05:27:34;;;;;;;6.60;2.80;;;17.60;99.90;;;;;;6215056;23;20021;-84
2023/07/08 05:30:01;;;;;;;48.47;45.25;;;17.70;99.90;;;;;;6216255;23;20023;-85
2023/07/08 05:32:27;;;;;;;523.85;458.67;;;17.80;99.90;;;;;;6215931;23;20017;-86
2023/07/08 05:34:53;;;;;;;204.93;189.55;;;17.90;99.90;;;;;;6215901;23;20028;-84
2023/07/08 05:37:23;;;;;;;102.00;92.00;;;18.00;99.90;;;;;;6216249;23;20016;-83
2023/07/08 05:39:49;;;;;;;868.22;533.63;;;18.00;99.90;;;;;;6216357;23;20036;-84
2023/07/08 05:42:15;;;;;;;4.50;2.33;;;18.10;99.90;;;;;;6216423;23;20016;-85
2023/07/08 05:44:41;;;;;;;57.70;51.13;;;18.20;99.90;;;;;;6215615;23;20452;-84
2023/07/08 05:47:06;;;;;;;4.80;2.35;;;18.30;99.90;;;;;;6215719;23;20016;-85
2023/07/08 05:49:32;;;;;;;3.50;2.58;;;18.50;99.90;;;;;;6216073;23;20091;-85
2023/07/08 05:51:58;;;;;;;3.90;2.60;;;18.50;99.90;;;;;;6189320;23;20025;-83
2023/07/08 05:54:24;;;;;;;39.47;35.85;;;18.60;99.90;;;;;;6189343;23;20023;-84
2023/07/08 05:56:50;;;;;;;1107.68;657.33;;;18.70;99.90;;;;;;6188861;23;20383;-83
2023/07/08 05:59:15;;;;;;;758.92;641.95;;;18.80;99.90;;;;;;6216298;23;20017;-83
2023/07/08 06:01:41;;;;;;;6.18;2.47;;;18.90;99.90;;;;;;6215841;23;20071;-83
2023/07/08 06:04:07;;;;;;;4.78;2.30;;;19.00;99.90;;;;;;6216377;23;20025;-82
2023/07/08 06:06:32;;;;;;;4.85;2.20;;;19.10;99.90;;;;;;6215966;23;20059;-82
2023/07/08 06:09:00;;;;;;;5.28;2.42;;;19.20;99.90;;;;;;6215768;23;20083;-84
2023/07/08 06:11:25;;;;;;;3.08;2.20;;;19.30;99.90;;;;;;6189151;23;20020;-83
2023/07/08 06:13:51;;;;;;;4.78;2.20;;;19.40;99.90;;;;;;6188918;23;20024;-84
2023/07/08 06:16:17;;;;;;;3.35;2.35;;;19.50;99.90;;;;;;6214880;23;20177;-84
2023/07/08 06:18:42;;;;;;;4.22;2.55;;;19.60;99.90;;;;;;6164045;23;20082;-83
2023/07/08 06:21:08;;;;;;;2.50;1.83;;;19.70;99.90;;;;;;6189239;23;20352;-85
2023/07/08 06:23:34;;;;;;;3.47;2.00;;;19.90;99.90;;;;;;6216169;23;20056;-83
2023/07/08 06:25:59;;;;;;;4.03;1.67;;;20.00;99.90;;;;;;6215626;23;20031;-83
2023/07/08 06:28:25;;;;;;;2.60;1.55;;;20.10;99.90;;;;;;6188932;23;20029;-86
2023/07/08 06:30:51;;;;;;;5.32;1.90;;;20.20;99.90;;;;;;6215830;23;20051;-87
2023/07/08 06:33:16;;;;;;;5.50;2.10;;;20.30;99.90;;;;;;6215829;23;20028;-87
2023/07/08 06:35:45;;;;;;;2.85;1.20;;;20.40;99.90;;;;;;6164813;23;20016;-89
2023/07/08 06:38:12;;;;;;;3.28;1.45;;;20.60;99.90;;;;;;6164143;23;20151;-89
2023/07/08 06:40:40;;;;;;;5.15;2.22;;;20.70;99.90;;;;;;6190598;23;20031;-90
2023/07/08 06:43:06;;;;;;;4.93;1.90;;;20.90;99.90;;;;;;6190494;23;20024;-87
2023/07/08 06:45:41;;;;;;;210.25;185.60;;;21.00;99.90;;;;;;6217966;23;20055;-89
2023/07/08 06:48:16;;;;;;;986.58;722.38;;;21.00;99.90;;;;;;6192199;23;20055;-90
2023/07/08 06:50:45;;;;;;;7.18;1.50;;;21.20;99.90;;;;;;6170737;23;20082;-87
2023/07/08 06:53:11;;;;;;;2.97;1.40;;;21.30;99.90;;;;;;6192277;23;20025;-86
2023/07/08 06:55:37;;;;;;;2.60;1.00;;;21.30;99.90;;;;;;6188880;23;20083;-88
2023/07/08 06:58:05;;;;;;;24.60;21.00;;;21.50;99.90;;;;;;6215706;23;20059;-88
2023/07/08 07:00:30;;;;;;;1201.20;638.77;;;21.60;99.90;;;;;;6189139;23;20594;-87
2023/07/08 07:02:59;;;;;;;2.92;1.38;;;21.70;99.90;;;;;;6215118;23;20420;-88
2023/07/08 07:05:25;;;;;;;378.70;343.98;;;21.80;99.90;;;;;;6215622;23;20020;-86
2023/07/08 07:07:52;;;;;;;830.33;473.83;;;21.90;99.90;;;;;;6188533;23;20024;-86
2023/07/08 07:10:18;;;;;;;792.35;519.72;;;22.00;99.90;;;;;;6215252;23;20021;-86
2023/07/08 07:12:44;;;;;;;153.27;107.45;;;22.10;99.90;;;;;;6215363;23;20132;-83
2023/07/08 07:15:10;;;;;;;825.30;527.87;;;22.20;99.90;;;;;;6188210;23;20051;-87
2023/07/08 07:17:36;;;;;;;83.13;74.80;;;22.30;99.90;;;;;;6214801;23;20928;-85
2023/07/08 07:20:03;;;;;;;349.77;167.17;;;22.50;99.90;;;;;;6213580;23;20404;-86
2023/07/08 07:22:29;;;;;;;711.53;422.80;;;22.60;99.90;;;;;;6188825;23;20031;-84
2023/07/08 07:24:55;;;;;;;;;;;22.70;99.90;;;;;;6189207;23;20069;-86
2023/07/08 07:27:20;;;;;;;;;;;22.80;99.90;;;;;;6189414;23;19940;-88
2023/07/08 07:29:47;;;;;;;;;;;22.90;99.90;;;;;;6216528;23;20380;-85
2023/07/08 07:32:15;;;;;;;119.03;107.63;;;23.00;99.90;;;;;;6188540;23;20953;-88
2023/07/08 07:34:43;;;;;;;3.92;1.27;;;23.20;99.90;;;;;;6213943;23;20396;-89
2023/07/08 07:37:13;;;;;;;3.28;1.10;;;23.30;99.90;;;;;;6187757;23;20024;-86
2023/07/08 07:39:40;;;;;;;1.98;1.00;;;23.40;99.90;;;;;;6188169;23;20012;-89
2023/07/08 07:42:06;;;;;;;2.33;1.10;;;23.50;99.90;;;;;;6188704;23;20083;-85
2023/07/08 07:44:31;;;;;;;3.03;1.20;;;23.60;99.90;;;;;;6163373;23;20371;-86
2023/07/08 07:46:58;;;;;;;5.25;1.30;;;23.70;99.90;;;;;;6215631;23;20021;-86
2023/07/08 07:49:24;;;;;;;6.57;0.90;;;23.90;99.90;;;;;;6217299;23;20012;-88
2023/07/08 07:51:55;;;;;;;1.95;1.05;;;23.90;99.90;;;;;;6215587;23;20346;-89
2023/07/08 07:54:27;;;;;;;2.30;1.20;;;24.00;99.90;;;;;;6215464;23;20024;-87
2023/07/08 07:56:52;;;;;;;1.80;0.88;;;24.10;99.90;;;;;;6140331;23;20024;-87
2023/07/08 07:59:19;;;;;;;2.63;1.10;;;24.20;99.90;;;;;;6187006;23;20028;-89
2023/07/08 08:01:45;;;;;;;3.90;1.08;;;24.30;99.90;;;;;;6188878;23;20028;-88
2023/07/08 08:04:11;;;;;;;3.03;1.30;;;24.50;99.70;;;;;;6165061;23;20095;-86
2023/07/08 08:06:37;;;;;;;2.40;0.80;;;24.60;99.40;;;;;;6189502;23;20025;-85
2023/07/08 08:09:03;;;;;;;3.80;1.13;;;24.70;99.90;;;;;;6189614;23;20372;-88
2023/07/08 08:11:29;;;;;;;2.13;1.00;;;24.80;99.70;;;;;;6189896;23;20016;-87
2023/07/08 08:13:56;;;;;;;2.72;1.20;;;24.90;98.40;;;;;;6189137;23;20469;-86
2023/07/08 08:16:22;;;;;;;1.92;1.00;;;25.00;98.90;;;;;;6214972;23;20024;-84
2023/07/08 08:18:48;;;;;;;1.27;1.00;;;25.10;98.10;;;;;;6214731;23;20029;-84
2023/07/08 08:21:14;;;;;;;2.33;1.10;;;25.20;98.10;;;;;;6188918;23;20084;-83
2023/07/08 08:23:39;;;;;;;1.75;1.10;;;25.20;98.20;;;;;;6215109;23;20020;-85
2023/07/08 08:26:05;;;;;;;2.78;1.10;;;25.30;98.10;;;;;;6214381;23;20024;-83
2023/07/08 08:28:31;;;;;;;1.70;0.80;;;25.30;97.50;;;;;;6215092;23;20347;-84
2023/07/08 08:30:56;;;;;;;1.55;0.95;;;25.40;98.20;;;;;;6215180;23;20055;-83
2023/07/08 08:33:22;;;;;;;2.17;1.08;;;25.50;98.10;;;;;;6215009;23;20024;-84
2023/07/08 08:35:48;;;;;;;1.52;1.00;;;25.60;97.70;;;;;;6215103;23;20017;-83
2023/07/08 08:38:14;;;;;;;2.50;1.33;;;25.70;98.60;;;;;;6188601;23;20028;-83
2023/07/08 08:40:42;;;;;;;1.15;0.85;;;25.70;97.20;;;;;;6214641;23;20021;-82
2023/07/08 08:43:15;;;;;;;5.78;1.30;;;25.90;98.00;;;;;;6215278;23;20473;-83
2023/07/08 08:46:25;;;;;;;6.35;1.40;;;25.90;97.70;;;;;;6188103;23;20021;-82
2023/07/08 08:49:22;;;;;;;2.67;0.93;;;26.10;97.20;;;;;;6095025;23;20050;-83
2023/07/08 08:51:49;;;;;;;1.70;1.00;;;26.10;96.80;;;;;;6095052;23;20050;-85
2023/07/08 08:54:15;;;;;;;3.55;0.95;;;26.20;97.40;;;;;;6095475;23;20114;-84
2023/07/08 08:56:47;;;;;;;1.30;0.90;;;26.30;97.40;;;;;;6095228;23;20026;-84
2023/07/08 08:59:46;;;;;;;1.35;0.88;;;26.40;96.60;;;;;;6095328;23;20366;-83
2023/07/08 09:02:53;;;;;;;3.95;1.10;;;26.50;97.10;;;;;;6095164;23;20077;-83
2023/07/08 09:05:19;;;;;;;4.70;1.10;;;26.50;96.70;;;;;;6095350;23;20082;-82
2023/07/08 09:07:58;;;;;;;1.88;0.98;;;26.50;96.50;;;;;;6095065;23;20089;-83
2023/07/08 09:10:47;;;;;;;3.63;1.10;;;26.70;96.40;;;;;;6095201;23;20038;-82
2023/07/08 09:13:25;;;;;;;4.82;1.33;;;26.80;96.80;;;;;;6048646;23;20030;-81
2023/07/08 09:16:19;;;;;;;3.08;1.23;;;26.90;95.80;;;;;;6094521;23;20022;-86
2023/07/08 09:19:06;;;;;;;2.83;1.20;;;26.90;95.60;;;;;;5990603;23;20023;-88
2023/07/08 09:21:59;;;;;;;1.88;0.85;;;27.20;96.20;;;;;;6016341;23;20102;-89
2023/07/08 09:24:53;;;;;;;3.70;1.10;;;27.30;95.90;;;;;;6099430;23;20349;-85
2023/07/08 09:27:20;;;;;;;1.88;0.98;;;27.40;95.70;;;;;;6099385;23;20018;-86
2023/07/08 09:29:46;;;;;;;2.25;1.00;;;27.50;95.30;;;;;;6123869;23;20096;-85
2023/07/08 09:32:17;;;;;;;2.33;1.02;;;27.50;95.30;;;;;;6099387;23;20030;-86
2023/07/08 09:35:03;;;;;;;1.73;0.77;;;27.50;94.60;;;;;;6075506;23;20021;-86
2023/07/08 09:37:31;;;;;;;2.58;1.02;;;27.70;94.70;;;;;;6098930;23;20030;-85
2023/07/08 09:39:59;;;;;;;1.65;0.90;;;27.80;95.00;;;;;;6123773;23;20033;-87
2023/07/08 09:42:31;;;;;;;1.30;0.80;;;27.90;94.30;;;;;;6099050;23;20018;-86
2023/07/08 09:45:02;;;;;;;3.10;1.20;;;27.90;94.00;;;;;;6123209;23;20022;-87
2023/07/08 09:47:39;;;;;;;2.75;0.80;;;28.00;93.90;;;;;;6099586;23;20061;-85
2023/07/08 09:50:27;;;;;;;4.03;1.20;;;28.20;94.10;;;;;;6075901;23;20096;-88
2023/07/08 09:52:57;;;;;;;1.65;0.93;;;28.50;94.40;;;;;;6123956;23;20088;-86
2023/07/08 09:55:23;;;;;;;2.47;1.20;;;28.50;92.90;;;;;;6134257;23;20032;-85
2023/07/08 09:57:52;;;;;;;1.48;0.90;;;28.50;92.90;;;;;;6189288;23;20035;-84
2023/07/08 10:00:26;;;;;;;2.03;1.02;;;28.60;92.70;;;;;;6215753;23;20031;-86
2023/07/08 10:02:56;;;;;;;1.33;0.80;;;28.80;92.40;;;;;;6216191;23;20029;-84
2023/07/08 10:05:33;;;;;;;1.92;0.90;;;28.90;93.70;;;;;;6189294;23;20021;-85
2023/07/08 10:08:00;;;;;;;2.17;0.88;;;28.90;91.80;;;;;;6164415;23;20025;-84
2023/07/08 10:10:37;;;;;;;1.67;0.70;;;29.10;92.90;;;;;;6216184;23;20063;-82
2023/07/08 10:13:22;;;;;;;3.05;1.00;;;29.20;92.60;;;;;;6216778;23;20470;-83
2023/07/08 10:15:55;;;;;;;2.70;0.75;;;29.30;92.50;;;;;;6216366;23;20087;-82
2023/07/08 10:18:28;;;;;;;2.00;1.13;;;29.60;93.60;;;;;;6189424;23;20024;-83
2023/07/08 10:21:01;;;;;;;1.55;1.08;;;29.70;91.80;;;;;;6189673;23;20024;-84
2023/07/08 10:23:30;;;;;;;2.03;0.90;;;29.60;92.30;;;;;;6216645;23;20100;-84
2023/07/08 10:26:25;;;;;;;773.90;498.97;;;29.70;92.10;;;;;;6216937;23;20016;-84
2023/07/08 10:28:54;;;;;;;1178.93;590.00;;;29.80;93.50;;;;;;6190503;23;20020;-85
2023/07/08 10:31:32;;;;;;;2.30;1.10;;;29.80;92.10;;;;;;6216997;23;20099;-85
2023/07/08 10:34:23;;;;;;;2.10;0.98;;;30.00;92.40;;;;;;6215766;23;20074;-83
2023/07/08 10:36:53;;;;;;;1.75;0.90;;;30.20;92.60;;;;;;6216384;23;20439;-85
2023/07/08 10:39:42;;;;;;;1.58;0.93;;;30.10;91.70;;;;;;6216481;23;20031;-84
2023/07/08 10:42:17;;;;;;;2.55;1.02;;;30.20;92.20;;;;;;6094671;23;20026;-83
2023/07/08 10:44:52;;;;;;;1.85;1.00;;;30.30;92.20;;;;;;6095270;23;20030;-83
2023/07/08 10:47:39;;;;;;;2.25;1.00;;;30.40;91.90;;;;;;6094845;23;20082;-84
2023/07/08 10:50:23;;;;;;;2.42;1.10;;;30.60;91.60;;;;;;6094238;23;20022;-85
2023/07/08 10:53:26;;;;;;;3.30;1.03;;;30.80;90.80;;;;;;6046530;23;20029;-87
2023/07/08 10:56:13;;;;;;;2.30;1.20;;;30.60;91.20;;;;;;6094001;23;20037;-82
2023/07/08 10:58:51;;;;;;;2.15;1.15;;;30.70;91.20;;;;;;6094319;23;20030;-83
2023/07/08 11:01:28;;;;;;;2.08;1.00;;;30.60;91.40;;;;;;6094174;23;20022;-82
2023/07/08 11:04:07;;;;;;;1.90;0.90;;;31.00;91.10;;;;;;6070134;23;20018;-83
2023/07/08 11:06:45;;;;;;;1.75;1.10;;;31.10;90.40;;;;;;6070362;23;20023;-84
2023/07/08 11:09:17;;;;;;;3.25;1.00;;;31.20;90.30;;;;;;6069607;23;20029;-81
2023/07/08 11:11:51;;;;;;;2.55;1.15;;;31.30;90.50;;;;;;6068825;23;20106;-82
2023/07/08 11:14:33;;;;;;;1.73;0.80;;;31.10;89.50;;;;;;6093209;23;20022;-85
2023/07/08 11:17:16;;;;;;;2.05;1.17;;;31.40;89.20;;;;;;6069587;23;20018;-84
2023/07/08 11:19:48;;;;;;;2.72;0.85;;;31.40;90.30;;;;;;6177363;23;20025;-82
2023/07/08 11:22:15;;;;;;;1.65;1.00;;;31.50;88.30;;;;;;6215869;23;20016;-85
2023/07/08 11:24:47;;;;;;;2.78;1.30;;;31.30;87.20;;;;;;6188483;23;20024;-85
2023/07/08 11:27:30;;;;;;;1.55;1.10;;;31.60;88.90;;;;;;6189059;23;20008;-81
2023/07/08 11:30:10;;;;;;;1.52;0.90;;;31.60;87.90;;;;;;6215431;23;20025;-83
2023/07/08 11:32:37;;;;;;;1.85;1.00;;;31.90;87.60;;;;;;6215952;23;20102;-83
2023/07/08 11:35:06;;;;;;;2.08;1.15;;;31.90;86.90;;;;;;6188524;23;20056;-82
2023/07/08 11:37:33;;;;;;;3.95;1.00;;;31.80;87.60;;;;;;6188695;23;20108;-82
2023/07/08 11:40:17;;;;;;;2.70;0.90;;;32.00;87.40;;;;;;6216070;23;20017;-84
2023/07/08 11:42:47;;;;;;;2.28;1.20;;;32.10;86.00;;;;;;6216299;23;20058;-84
2023/07/08 11:45:18;;;;;;;4.55;1.00;;;32.10;87.90;;;;;;6215440;23;20350;-82
2023/07/08 11:47:49;;;;;;;2.47;1.20;;;32.20;86.90;;;;;;6216459;23;20020;-83
2023/07/08 11:50:40;;;;;;;1.83;1.10;;;32.30;85.40;;;;;;6189032;23;20021;-86
2023/07/08 11:53:11;;;;;;;2.15;0.90;;;32.20;83.00;;;;;;6190877;23;20021;-86
2023/07/08 11:55:54;;;;;;;3.70;1.05;;;32.20;84.20;;;;;;6188573;23;20039;-84
2023/07/08 11:58:25;;;;;;;2.40;1.00;;;32.30;85.20;;;;;;6218530;23;20021;-83
2023/07/08 12:01:17;;;;;;;2.90;1.33;;;32.30;85.40;;;;;;6216043;23;20056;-84
2023/07/08 12:04:00;;;;;;;1.65;1.10;;;32.50;84.60;;;;;;6215414;23;20520;-82
2023/07/08 12:06:26;;;;;;;1.83;0.93;;;32.60;84.60;;;;;;6188686;23;20028;-85
2023/07/08 12:08:59;;;;;;;2.65;1.10;;;32.60;83.60;;;;;;6216364;23;20439;-87
2023/07/08 12:11:31;;;;;;;2.75;1.30;;;32.50;84.10;;;;;;6215526;23;20020;-86
2023/07/08 12:13:59;;;;;;;3.25;1.20;;;32.50;82.90;;;;;;6189046;23;20436;-86
2023/07/08 12:16:27;;;;;;;3.00;1.00;;;32.50;83.10;;;;;;6217200;23;20463;-85
2023/07/08 12:18:54;;;;;;;2.00;1.17;;;32.50;83.00;;;;;;6190325;23;20025;-83
2023/07/08 12:21:26;;;;;;;2.22;1.38;;;32.70;83.00;;;;;;6216311;23;20031;-83
2023/07/08 12:23:52;;;;;;;1.67;1.15;;;32.70;80.80;;;;;;6219202;23;20021;-88
2023/07/08 12:26:18;;;;;;;1.40;1.08;;;32.60;82.30;;;;;;6193487;23;20035;-85
2023/07/08 12:28:44;;;;;;;3.75;1.30;;;32.70;80.70;;;;;;6192310;23;20479;-84
2023/07/08 12:31:19;;;;;;;3.75;1.30;;;32.70;81.10;;;;;;6220319;23;20460;-84
2023/07/08 12:33:45;;;;;;;2.38;1.20;;;32.80;81.30;;;;;;6221461;23;20020;-84
2023/07/08 12:36:25;;;;;;;5.53;1.30;;;32.90;81.80;;;;;;6219929;23;20474;-86
2023/07/08 12:38:52;;;;;;;3.40;1.33;;;33.00;81.30;;;;;;6197140;23;20028;-85
2023/07/08 12:41:21;;;;;;;3.60;1.50;;;32.90;80.80;;;;;;6225283;23;20095;-87
2023/07/08 12:43:48;;;;;;;2.05;1.00;;;33.10;82.70;;;;;;6226163;23;20025;-88
2023/07/08 12:46:25;;;;;;;2.13;1.15;;;33.10;84.60;;;;;;6201189;23;20419;-88
2023/07/08 12:48:54;;;;;;;2.35;1.10;;;33.20;78.90;;;;;;6203186;23;20024;-90
2023/07/08 12:51:24;;;;;;;2.13;1.20;;;33.40;78.90;;;;;;6199230;23;20024;-86
2023/07/08 12:53:52;;;;;;;1.58;1.08;;;33.50;79.80;;;;;;6228833;23;20020;-84
2023/07/08 12:56:21;;;;;;;2.08;1.10;;;33.70;81.30;;;;;;6198617;23;20082;-86
2023/07/08 12:58:54;;;;;;;2.58;1.20;;;33.70;78.10;;;;;;6223970;23;20382;-86
2023/07/08 13:01:25;;;;;;;2.65;1.38;;;33.80;78.20;;;;;;6222152;23;20055;-86